This is the latest recevied weather packets stored in our database for station/object JH7UAX-10. If no packets are shown the sender has not sent any weather packets the latest 10 day(s).
| Time | Temp. | Humidity | Pressure | Rain* | Wind** | Luminosity | Snow |
|---|---|---|---|---|---|---|---|
| 1777793880 | 14.44° C | 85% | 1019 hPa | 0 mm | - | - | - |
| 1777793406 | 14.44° C | 84% | 1019.3 hPa | 0 mm | - | - | - |
| 1777792980 | 15° C | 83% | 1019.2 hPa | 0 mm | - | - | - |
| 1777792079 | 15° C | 82% | 1019.3 hPa | 0 mm | - | - | - |
| 1777791605 | 15° C | 81% | 1019.5 hPa | 0 mm | - | - | - |
| 1777791179 | 15° C | 81% | 1019.4 hPa | 0 mm | - | - | - |
| 1777790707 | 15° C | 80% | 1019.3 hPa | 0 mm | - | - | - |
| 1777790279 | 15° C | 79% | 1019 hPa | 0 mm | - | - | - |
| 1777789807 | 15.56° C | 79% | 1018.8 hPa | 0 mm | - | - | - |
| 1777789378 | 15.56° C | 78% | 1018.9 hPa | 0 mm | - | - | - |
| 1777788478 | 16.11° C | 76% | 1018.6 hPa | 0 mm | - | - | - |
| 1777787580 | 17.22° C | 74% | 1018.4 hPa | 0 mm | - | - | - |
| 1777787105 | 17.78° C | 72% | 1018.3 hPa | 0 mm | - | - | - |
| 1777786679 | 18.89° C | 69% | 1018.3 hPa | 0 mm | - | - | - |
| 1777786206 | 22.22° C | 46% | 1018.2 hPa | 0 mm | - | - | - |
| 1777785778 | 22.22° C | 45% | 1018.1 hPa | 0 mm | - | - | - |
| 1777785306 | 22.22° C | 44% | 1018.1 hPa | 0 mm | - | - | - |
| 1777784880 | 22.22° C | 45% | 1018 hPa | 0 mm | - | - | - |
| 1777784405 | 22.78° C | 45% | 1018.2 hPa | 0 mm | - | - | - |
| 1777783980 | 22.22° C | 45% | 1018.1 hPa | 0 mm | - | - | - |
| 1777783505 | 22.22° C | 46% | 1018.1 hPa | 0 mm | - | - | - |
| 1777783079 | 22.22° C | 46% | 1018.2 hPa | 0 mm | - | - | - |
| 1777782179 | 22.22° C | 46% | 1018.4 hPa | 0 mm | - | - | - |
| 1777781279 | 22.22° C | 46% | 1018.8 hPa | 0 mm | - | - | - |
| 1777780807 | 22.22° C | 47% | 1018.8 hPa | 0 mm | - | - | - |
* Rain latest hour (hover to see other rain measurements)
** Current wind speed in m/s (hover to see current wind gust speed)